Time;durP1;ratioP1;P1;durP2;ratioP2;P2;SDS_P1;SDS_P2;PMS_P1;PMS_P2;Temp;Humidity;BMP_temperature;BMP_pressure;BME280_temperature;BME280_humidity;BME280_pressure;Samples;Min_cycle;Max_cycle;Signal;HPM_P1;HPM_P2
2023/02/11 00:00:47;;;;;;;42.85;16.88;;;3.50;99.90;;;;;;5010867;28;20038;-65
2023/02/11 00:03:12;;;;;;;35.22;15.43;;;3.40;99.90;;;;;;5007010;28;20129;-65
2023/02/11 00:05:38;;;;;;;44.63;16.13;;;3.30;99.90;;;;;;5005177;28;20042;-65
2023/02/11 00:08:04;;;;;;;35.38;15.07;;;3.20;99.90;;;;;;5007490;28;20030;-65
2023/02/11 00:10:29;;;;;;;39.65;15.25;;;3.20;99.90;;;;;;5009169;28;20030;-65
2023/02/11 00:12:55;;;;;;;39.80;16.35;;;3.20;99.90;;;;;;5002340;28;20053;-67
2023/02/11 00:15:21;;;;;;;37.03;16.85;;;3.20;99.90;;;;;;5003830;28;20465;-64
2023/02/11 00:17:46;;;;;;;34.47;15.55;;;3.10;99.90;;;;;;4999071;28;20048;-65
2023/02/11 00:20:12;;;;;;;44.22;17.30;;;3.20;99.90;;;;;;5004006;28;20401;-66
2023/02/11 00:22:37;;;;;;;36.13;16.67;;;3.20;99.90;;;;;;5001108;28;20121;-66
2023/02/11 00:25:03;;;;;;;44.65;17.52;;;3.20;99.90;;;;;;5002831;28;20049;-67
2023/02/11 00:27:29;;;;;;;44.47;17.90;;;3.20;99.90;;;;;;5007189;28;20503;-66
2023/02/11 00:29:55;;;;;;;46.30;18.88;;;3.20;99.90;;;;;;5003994;28;20026;-66
2023/02/11 00:32:20;;;;;;;44.22;18.80;;;3.20;99.90;;;;;;5005037;28;20033;-66
2023/02/11 00:34:46;;;;;;;46.42;18.45;;;3.20;99.90;;;;;;5004697;28;20033;-66
2023/02/11 00:37:12;;;;;;;46.42;18.45;;;3.10;99.90;;;;;;4998035;28;20040;-66
2023/02/11 00:39:38;;;;;;;47.63;18.38;;;3.00;99.90;;;;;;5005882;28;20108;-66
2023/02/11 00:42:03;;;;;;;41.50;17.58;;;3.00;99.90;;;;;;5005065;28;20113;-66
2023/02/11 00:44:29;;;;;;;47.25;17.75;;;2.90;99.90;;;;;;5004388;28;20029;-66
2023/02/11 00:46:55;;;;;;;41.10;17.02;;;2.90;99.90;;;;;;5006173;28;20392;-66
2023/02/11 00:49:20;;;;;;;43.50;16.67;;;2.80;99.90;;;;;;5002659;28;20037;-66
2023/02/11 00:51:46;;;;;;;35.45;16.80;;;2.80;99.90;;;;;;4980657;28;20060;-66
2023/02/11 00:54:12;;;;;;;42.17;17.95;;;2.80;99.90;;;;;;4978931;28;22016;-66
2023/02/11 00:56:37;;;;;;;39.53;17.08;;;2.80;99.90;;;;;;4997312;28;20026;-66
2023/02/11 00:59:03;;;;;;;39.03;17.08;;;2.80;99.90;;;;;;5004513;28;20034;-67
2023/02/11 01:01:29;;;;;;;40.20;17.70;;;2.80;99.90;;;;;;4998899;28;20034;-66
2023/02/11 01:03:54;;;;;;;48.90;19.77;;;2.90;99.90;;;;;;5001444;28;20026;-65
2023/02/11 01:06:20;;;;;;;49.85;19.63;;;2.90;99.90;;;;;;4999393;28;20030;-66
2023/02/11 01:08:45;;;;;;;49.33;19.48;;;2.90;99.90;;;;;;5006545;28;20397;-66
2023/02/11 01:11:15;;;;;;;42.38;18.10;;;3.00;99.90;;;;;;5003513;28;20030;-65
2023/02/11 01:13:41;;;;;;;44.78;17.27;;;3.00;99.90;;;;;;5001431;28;20097;-65
2023/02/11 01:16:08;;;;;;;43.50;16.45;;;3.00;99.90;;;;;;4998033;28;20037;-67
2023/02/11 01:18:34;;;;;;;40.78;16.38;;;3.00;99.90;;;;;;5005135;28;20497;-67
2023/02/11 01:21:00;;;;;;;46.75;17.33;;;3.10;99.90;;;;;;5004735;28;20048;-66
2023/02/11 01:23:25;;;;;;;39.95;18.58;;;3.10;99.90;;;;;;5002214;28;20835;-66
2023/02/11 01:25:51;;;;;;;43.75;17.60;;;3.20;99.90;;;;;;5000221;28;20030;-66
2023/02/11 01:28:23;;;;;;;42.70;18.60;;;3.20;99.90;;;;;;5010866;28;20022;-66
2023/02/11 01:30:49;;;;;;;37.65;17.80;;;3.30;99.90;;;;;;5008842;28;20022;-66
2023/02/11 01:33:15;;;;;;;45.83;18.88;;;3.30;99.90;;;;;;5012163;28;20014;-66
2023/02/11 01:35:42;;;;;;;42.40;18.45;;;3.30;99.90;;;;;;5002695;28;20025;-65
2023/02/11 01:38:17;;;;;;;38.75;18.42;;;3.30;99.90;;;;;;5009301;28;20025;-66
2023/02/11 01:40:58;;;;;;;39.05;18.02;;;3.40;99.90;;;;;;4994358;28;20018;-66
2023/02/11 01:43:26;;;;;;;43.33;17.27;;;3.30;99.90;;;;;;4986657;28;20025;-66
2023/02/11 01:45:57;;;;;;;49.55;17.58;;;3.40;99.90;;;;;;5008886;28;20021;-66
2023/02/11 01:48:51;;;;;;;36.72;16.70;;;3.40;99.90;;;;;;5006940;28;20470;-66
2023/02/11 01:51:42;;;;;;;40.20;15.40;;;3.40;99.90;;;;;;4999062;28;20041;-66
2023/02/11 01:59:49;;;;;;;34.78;16.00;;;3.50;99.90;;;;;;5003308;28;20048;-66
2023/02/11 02:02:20;;;;;;;44.10;15.10;;;3.50;99.90;;;;;;4999557;28;20037;-66
2023/02/11 02:04:59;;;;;;;35.78;16.40;;;3.60;99.90;;;;;;4996875;28;20045;-67
2023/02/11 02:07:48;;;;;;;32.08;15.00;;;3.70;99.90;;;;;;4994159;28;20030;-66
2023/02/11 02:10:18;;;;;;;34.63;14.82;;;3.80;99.90;;;;;;5002608;28;20018;-66
2023/02/11 02:12:43;;;;;;;40.13;17.45;;;3.90;99.90;;;;;;5005420;28;20022;-66
2023/02/11 02:15:33;;;;;;;34.13;15.35;;;3.90;99.90;;;;;;5006183;28;20025;-66
2023/02/11 02:18:00;;;;;;;37.95;16.40;;;3.90;99.90;;;;;;5002142;28;20014;-66
2023/02/11 02:21:07;;;;;;;38.15;15.98;;;3.90;99.90;;;;;;5007543;28;20473;-66
2023/02/11 02:23:51;;;;;;;31.85;15.50;;;3.90;99.90;;;;;;4962732;28;20030;-66
2023/02/11 02:26:56;;;;;;;36.88;16.25;;;3.80;99.90;;;;;;5003928;28;20639;-66
2023/02/11 02:29:28;;;;;;;32.67;15.60;;;3.70;99.90;;;;;;5006172;28;20045;-67
2023/02/11 02:32:14;;;;;;;31.25;15.38;;;3.70;99.90;;;;;;4989578;28;20026;-66
2023/02/11 02:34:39;;;;;;;34.30;15.43;;;3.70;99.90;;;;;;5009324;28;20025;-65
2023/02/11 02:37:36;;;;;;;35.70;16.17;;;3.80;99.90;;;;;;5008710;28;20022;-66
2023/02/11 02:40:07;;;;;;;35.28;16.90;;;3.80;99.90;;;;;;5003032;28;20038;-66
2023/02/11 02:42:33;;;;;;;41.17;17.40;;;3.70;99.90;;;;;;5007754;28;20030;-66
2023/02/11 02:44:59;;;;;;;33.88;15.20;;;3.50;99.90;;;;;;5003326;28;20447;-66
2023/02/11 02:47:25;;;;;;;34.45;16.58;;;3.40;99.90;;;;;;5009311;28;20029;-66
2023/02/11 02:49:50;;;;;;;37.45;16.77;;;3.40;99.90;;;;;;5010455;28;20022;-66
2023/02/11 02:52:35;;;;;;;35.90;15.98;;;3.30;99.90;;;;;;5001677;28;20026;-66
2023/02/11 02:55:14;;;;;;;40.28;17.20;;;3.40;99.90;;;;;;5006241;28;20049;-66
2023/02/11 02:58:04;;;;;;;36.35;16.27;;;3.50;99.90;;;;;;5004111;28;20609;-66
2023/02/11 03:00:44;;;;;;;40.88;18.63;;;3.40;99.90;;;;;;4998934;28;20057;-66
2023/02/11 03:03:16;;;;;;;43.28;17.70;;;3.30;99.90;;;;;;5004313;28;20034;-65
2023/02/11 03:05:50;;;;;;;39.72;17.15;;;3.20;99.90;;;;;;5003697;28;20497;-66
2023/02/11 03:08:33;;;;;;;39.60;17.58;;;3.10;99.90;;;;;;5009298;28;20113;-66
2023/02/11 03:11:01;;;;;;;50.63;18.48;;;3.00;99.90;;;;;;5006406;28;20654;-66
2023/02/11 03:13:32;;;;;;;44.22;17.65;;;3.10;99.90;;;;;;4964027;28;20504;-66
2023/02/11 03:16:05;;;;;;;42.17;17.73;;;3.20;99.90;;;;;;5000333;28;20018;-66
2023/02/11 03:18:33;;;;;;;36.93;17.27;;;3.20;99.90;;;;;;5001916;28;20044;-66
2023/02/11 03:21:01;;;;;;;46.38;18.90;;;3.40;99.90;;;;;;4998311;28;20457;-66
2023/02/11 03:23:38;;;;;;;44.53;18.15;;;3.60;99.90;;;;;;5005138;28;20045;-65
2023/02/11 03:26:23;;;;;;;43.00;18.35;;;3.70;99.90;;;;;;5001520;28;21984;-66
2023/02/11 03:29:11;;;;;;;45.70;20.30;;;3.80;99.90;;;;;;5005394;28;20086;-65
2023/02/11 03:32:02;;;;;;;38.92;18.73;;;3.90;99.90;;;;;;5010333;28;20061;-66
2023/02/11 03:34:44;;;;;;;42.95;18.25;;;4.00;99.90;;;;;;4992340;28;20022;-66
2023/02/11 03:37:39;;;;;;;40.00;19.25;;;4.10;99.90;;;;;;5010767;28;20033;-66
2023/02/11 03:40:19;;;;;;;46.42;19.15;;;4.20;99.90;;;;;;5008530;28;20026;-66
2023/02/11 03:42:59;;;;;;;39.72;17.83;;;4.20;99.90;;;;;;5006352;28;20022;-66
2023/02/11 03:45:26;;;;;;;31.30;16.25;;;4.20;99.90;;;;;;5008744;28;20045;-65
2023/02/11 03:47:59;;;;;;;44.63;18.27;;;4.30;99.90;;;;;;5010240;28;20030;-66
2023/02/11 03:50:27;;;;;;;38.97;17.25;;;4.30;99.90;;;;;;5000119;28;20026;-66
2023/02/11 03:52:54;;;;;;;46.10;19.05;;;4.20;99.90;;;;;;4999506;28;20125;-66
2023/02/11 03:55:24;;;;;;;45.25;19.95;;;4.20;99.90;;;;;;4999185;28;20161;-66
2023/02/11 03:57:50;;;;;;;41.50;18.95;;;4.20;99.90;;;;;;4998625;28;20055;-66
2023/02/11 04:00:16;;;;;;;46.20;18.58;;;4.20;99.90;;;;;;4988708;28;20055;-66
2023/02/11 04:02:43;;;;;;;40.83;18.85;;;4.10;99.90;;;;;;4987208;28;20038;-66
2023/02/11 04:05:14;;;;;;;37.22;16.88;;;4.10;99.90;;;;;;4993128;28;20053;-66
2023/02/11 04:07:39;;;;;;;46.53;19.83;;;4.10;99.90;;;;;;5042216;22;20503;-65
2023/02/11 04:10:05;;;;;;;41.30;19.17;;;4.10;99.90;;;;;;5045962;28;20032;-67
2023/02/11 04:12:31;;;;;;;49.22;19.63;;;4.10;99.90;;;;;;5046463;28;20024;-66
2023/02/11 04:14:57;;;;;;;47.75;19.92;;;4.10;99.90;;;;;;5044681;28;20538;-67
2023/02/11 04:17:23;;;;;;;42.03;19.30;;;4.20;99.90;;;;;;5044900;28;20025;-66
2023/02/11 04:19:48;;;;;;;42.55;17.77;;;4.20;99.90;;;;;;5047542;28;20017;-66
2023/02/11 04:22:14;;;;;;;44.13;18.17;;;4.20;99.90;;;;;;5044124;28;20021;-65
2023/02/11 04:24:39;;;;;;;39.75;17.25;;;4.20;99.90;;;;;;5042624;28;20043;-65
2023/02/11 04:27:05;;;;;;;43.78;18.95;;;4.20;99.90;;;;;;5044604;28;20039;-66
2023/02/11 04:29:31;;;;;;;43.20;20.25;;;4.20;99.90;;;;;;5044261;28;20176;-66
2023/02/11 04:31:57;;;;;;;39.92;18.85;;;4.20;99.90;;;;;;5045469;28;20549;-67
2023/02/11 04:34:23;;;;;;;41.05;18.02;;;4.20;99.90;;;;;;5043580;28;20116;-65
2023/02/11 04:36:49;;;;;;;40.83;18.80;;;4.20;99.90;;;;;;5042504;28;20400;-65
2023/02/11 04:39:15;;;;;;;40.55;19.45;;;4.30;99.90;;;;;;5047070;28;20116;-65
2023/02/11 04:41:41;;;;;;;49.85;20.05;;;4.30;99.90;;;;;;5050133;28;20100;-66
2023/02/11 04:44:07;;;;;;;45.95;19.88;;;4.30;99.90;;;;;;5052132;28;20025;-64
2023/02/11 04:46:32;;;;;;;47.55;19.48;;;4.40;99.90;;;;;;5048599;28;20023;-67
2023/02/11 04:48:58;;;;;;;46.10;18.58;;;4.40;99.90;;;;;;5050928;28;20028;-65
2023/02/11 04:51:23;;;;;;;47.28;19.55;;;4.50;99.90;;;;;;5046038;28;20025;-66
2023/02/11 04:53:49;;;;;;;41.22;20.10;;;4.50;99.90;;;;;;5050378;28;20029;-65
2023/02/11 04:56:14;;;;;;;36.05;17.95;;;4.50;99.90;;;;;;5031505;28;20129;-64
2023/02/11 04:58:40;;;;;;;38.40;18.73;;;4.50;99.90;;;;;;5029804;28;20036;-67
2023/02/11 05:01:10;;;;;;;40.30;19.35;;;4.60;99.90;;;;;;5049937;28;20063;-65
2023/02/11 05:03:37;;;;;;;40.80;17.88;;;4.60;99.90;;;;;;5048262;28;20029;-67
2023/02/11 05:06:03;;;;;;;41.00;17.75;;;4.60;99.90;;;;;;5047493;28;20028;-65
2023/02/11 05:08:29;;;;;;;40.03;19.35;;;4.60;99.90;;;;;;5051408;28;20036;-65
2023/02/11 05:10:55;;;;;;;45.75;19.70;;;4.60;99.90;;;;;;5043384;28;20037;-67
2023/02/11 05:13:21;;;;;;;36.30;17.45;;;4.70;99.90;;;;;;5047228;28;20408;-65
2023/02/11 05:15:47;;;;;;;50.13;18.95;;;4.70;99.90;;;;;;5050112;28;20036;-67
2023/02/11 05:18:15;;;;;;;49.25;18.35;;;4.70;99.90;;;;;;5049753;28;20082;-66
2023/02/11 05:20:41;;;;;;;36.58;17.20;;;4.70;99.90;;;;;;5049187;28;20078;-65
2023/02/11 05:23:07;;;;;;;40.47;17.58;;;4.70;99.90;;;;;;5050417;28;20061;-65
2023/02/11 05:25:33;;;;;;;45.03;19.65;;;4.80;99.90;;;;;;5043766;28;20468;-66
2023/02/11 05:27:58;;;;;;;46.95;18.50;;;4.70;99.90;;;;;;5044512;28;20106;-65
2023/02/11 05:30:24;;;;;;;35.00;18.08;;;4.70;99.90;;;;;;5044122;28;20063;-65
2023/02/11 05:32:50;;;;;;;41.05;20.45;;;4.70;99.90;;;;;;5043802;28;20055;-65
2023/02/11 05:35:16;;;;;;;41.53;18.23;;;4.70;99.90;;;;;;5044815;28;20024;-66
2023/02/11 05:37:42;;;;;;;46.40;19.27;;;4.70;99.90;;;;;;5042471;28;20053;-65
2023/02/11 05:40:08;;;;;;;42.05;18.60;;;4.70;99.90;;;;;;5045331;28;20549;-65
2023/02/11 05:42:34;;;;;;;35.38;15.63;;;4.70;99.90;;;;;;5043571;28;20024;-65
2023/02/11 05:44:59;;;;;;;41.78;18.98;;;4.70;99.90;;;;;;5043881;28;20025;-66
2023/02/11 05:47:25;;;;;;;50.33;20.15;;;4.70;99.90;;;;;;5045034;28;20050;-66
2023/02/11 05:49:52;;;;;;;46.63;19.67;;;4.70;99.90;;;;;;5039811;28;20575;-65
2023/02/11 05:52:19;;;;;;;46.72;19.77;;;4.70;99.90;;;;;;5042587;28;20116;-66
2023/02/11 05:54:44;;;;;;;50.92;19.45;;;4.60;99.90;;;;;;5039462;28;20499;-65
2023/02/11 05:57:10;;;;;;;43.40;19.90;;;4.70;99.90;;;;;;5023764;28;20021;-66
2023/02/11 05:59:35;;;;;;;41.92;19.13;;;4.70;99.90;;;;;;5047527;28;20028;-66
2023/02/11 06:02:01;;;;;;;53.45;20.05;;;4.70;99.90;;;;;;5047238;28;20025;-65
2023/02/11 06:04:26;;;;;;;40.83;17.92;;;4.70;99.90;;;;;;5045862;28;20523;-64
2023/02/11 06:06:52;;;;;;;56.35;20.70;;;4.70;99.90;;;;;;5046498;28;20021;-65
2023/02/11 06:09:18;;;;;;;44.80;21.00;;;4.70;99.90;;;;;;5033455;28;20031;-67
2023/02/11 06:11:43;;;;;;;43.72;19.25;;;4.70;99.90;;;;;;5050369;28;20033;-66
2023/02/11 06:14:09;;;;;;;40.45;18.35;;;4.60;99.90;;;;;;5049619;28;20082;-65
2023/02/11 06:16:35;;;;;;;47.78;19.63;;;4.70;99.90;;;;;;5046867;28;20160;-66
2023/02/11 06:19:01;;;;;;;47.35;19.63;;;4.70;99.90;;;;;;5046639;28;20551;-66
2023/02/11 06:21:27;;;;;;;45.00;19.98;;;4.70;99.90;;;;;;5047201;28;20043;-65
2023/02/11 06:23:52;;;;;;;43.50;19.80;;;4.60;99.90;;;;;;5032565;28;20031;-65
2023/02/11 06:26:21;;;;;;;45.60;19.27;;;4.50;99.90;;;;;;5047352;28;20025;-64
2023/02/11 06:28:47;;;;;;;41.80;18.67;;;4.50;99.90;;;;;;5049220;28;20134;-66
2023/02/11 06:31:13;;;;;;;42.85;18.80;;;4.50;99.90;;;;;;5049154;28;20079;-65
2023/02/11 06:33:38;;;;;;;39.55;18.42;;;4.40;99.90;;;;;;5044740;28;20029;-65
2023/02/11 06:36:11;;;;;;;43.65;18.88;;;4.40;99.90;;;;;;5044611;28;20037;-65
2023/02/11 06:38:36;;;;;;;38.05;17.92;;;4.30;99.90;;;;;;5048723;28;20056;-66
2023/02/11 06:41:02;;;;;;;48.92;20.75;;;4.30;99.90;;;;;;5031055;28;20565;-66
2023/02/11 06:43:28;;;;;;;31.60;17.17;;;4.20;99.90;;;;;;5047096;28;20100;-65
2023/02/11 06:45:54;;;;;;;36.95;18.40;;;4.20;99.90;;;;;;5040857;28;20488;-66
2023/02/11 06:48:21;;;;;;;38.13;17.60;;;4.20;99.90;;;;;;5048244;28;20066;-66
2023/02/11 06:50:46;;;;;;;41.13;18.27;;;4.20;99.90;;;;;;5044595;28;20017;-67
2023/02/11 06:53:12;;;;;;;38.22;19.35;;;4.20;99.90;;;;;;5047123;28;20214;-67
2023/02/11 06:55:38;;;;;;;44.15;18.33;;;4.20;99.90;;;;;;5045277;28;20435;-65
2023/02/11 06:58:03;;;;;;;39.25;18.02;;;4.20;99.90;;;;;;5042232;28;20388;-66
2023/02/11 07:00:29;;;;;;;43.08;19.73;;;4.20;99.90;;;;;;5048444;28;20096;-67
2023/02/11 07:02:54;;;;;;;34.35;17.45;;;4.20;99.90;;;;;;5048485;28;20438;-67
2023/02/11 07:05:20;;;;;;;42.35;19.55;;;4.20;99.90;;;;;;5048245;28;20067;-65
2023/02/11 07:07:46;;;;;;;46.05;21.60;;;4.10;99.90;;;;;;5048811;28;20041;-65
2023/02/11 07:10:12;;;;;;;45.92;20.55;;;4.10;99.90;;;;;;5049556;28;20033;-69
2023/02/11 07:12:37;;;;;;;48.22;21.65;;;4.10;99.90;;;;;;5047642;28;20116;-68
2023/02/11 07:15:03;;;;;;;44.90;19.88;;;4.20;99.90;;;;;;5040781;28;20679;-66
2023/02/11 07:17:29;;;;;;;41.00;19.65;;;4.10;99.90;;;;;;5046598;28;20029;-68
2023/02/11 07:19:54;;;;;;;45.15;20.63;;;4.10;99.90;;;;;;5030488;28;20055;-66
2023/02/11 07:22:20;;;;;;;41.72;18.52;;;4.10;99.90;;;;;;5046800;28;20025;-69
2023/02/11 07:24:45;;;;;;;41.42;19.20;;;4.10;99.90;;;;;;5043961;28;20477;-66
2023/02/11 07:27:11;;;;;;;47.15;20.08;;;4.20;99.90;;;;;;5041291;28;20071;-68
2023/02/11 07:29:37;;;;;;;41.08;18.48;;;4.20;99.90;;;;;;5043816;28;20033;-68
2023/02/11 07:32:03;;;;;;;41.08;19.77;;;4.10;99.90;;;;;;5045907;28;20033;-66
2023/02/11 07:34:28;;;;;;;45.28;20.13;;;4.20;99.90;;;;;;5045552;28;20029;-66
2023/02/11 07:36:54;;;;;;;41.33;19.23;;;4.20;99.90;;;;;;5041646;28;20531;-66
2023/02/11 07:39:21;;;;;;;37.28;18.50;;;4.20;99.90;;;;;;5045993;28;20104;-68
2023/02/11 07:41:48;;;;;;;40.35;18.58;;;4.10;99.90;;;;;;5040719;28;20029;-66
2023/02/11 07:44:14;;;;;;;45.55;19.65;;;4.10;99.90;;;;;;5042838;28;20083;-66
2023/02/11 07:46:44;;;;;;;45.70;19.70;;;4.10;99.90;;;;;;5046080;28;20037;-65
2023/02/11 07:49:10;;;;;;;41.13;19.98;;;4.10;99.90;;;;;;5043798;28;20037;-68
2023/02/11 07:51:36;;;;;;;45.35;21.25;;;4.10;99.90;;;;;;5044117;28;20043;-68
2023/02/11 07:54:02;;;;;;;42.08;19.25;;;4.10;99.90;;;;;;5046083;28;20037;-67
2023/02/11 07:56:28;;;;;;;41.08;18.55;;;4.10;99.90;;;;;;5045540;28;20039;-64
2023/02/11 07:58:55;;;;;;;42.78;19.13;;;4.10;99.90;;;;;;5029674;28;20017;-67
2023/02/11 08:01:25;;;;;;;45.33;20.02;;;4.10;99.90;;;;;;5011641;28;20560;-65
2023/02/11 08:03:52;;;;;;;46.55;20.08;;;4.10;99.90;;;;;;5025148;28;20408;-66
2023/02/11 08:06:19;;;;;;;45.38;20.73;;;4.10;99.90;;;;;;5020776;28;20047;-64
2023/02/11 08:08:45;;;;;;;45.00;21.02;;;4.10;99.90;;;;;;5043268;28;20049;-64
2023/02/11 08:11:23;;;;;;;65.30;28.77;;;4.10;99.90;;;;;;5046773;28;20072;-66
2023/02/11 08:13:49;;;;;;;56.30;24.45;;;4.10;99.90;;;;;;5048726;28;20021;-65
2023/02/11 08:16:21;;;;;;;54.75;23.75;;;4.10;99.90;;;;;;5047387;28;20025;-67
2023/02/11 08:18:47;;;;;;;44.92;23.17;;;4.10;99.90;;;;;;5048804;28;20029;-66
2023/02/11 08:21:13;;;;;;;54.83;25.85;;;4.10;99.90;;;;;;5047362;28;21715;-67
2023/02/11 08:23:40;;;;;;;36.92;18.63;;;4.10;99.90;;;;;;5045475;28;20043;-67
2023/02/11 08:26:10;;;;;;;39.00;18.27;;;4.00;99.90;;;;;;5048636;28;20120;-65
2023/02/11 08:28:38;;;;;;;42.45;19.30;;;4.10;99.90;;;;;;5048295;28;20041;-67
2023/02/11 08:31:05;;;;;;;38.88;19.15;;;4.10;99.90;;;;;;5047577;28;20041;-66
2023/02/11 08:33:32;;;;;;;51.95;21.55;;;4.10;99.90;;;;;;5042067;28;20025;-66
2023/02/11 08:35:57;;;;;;;44.88;20.25;;;4.10;99.90;;;;;;5047344;28;20067;-66
2023/02/11 08:38:23;;;;;;;49.63;20.00;;;4.10;99.90;;;;;;5046670;28;20037;-67
2023/02/11 08:40:48;;;;;;;49.03;20.45;;;4.10;99.90;;;;;;5039295;28;20043;-66
2023/02/11 08:43:14;;;;;;;57.70;22.08;;;4.10;99.90;;;;;;5048213;28;20029;-66
2023/02/11 08:45:40;;;;;;;58.10;23.48;;;4.20;99.90;;;;;;5047817;28;20120;-66
2023/02/11 08:48:05;;;;;;;66.78;27.45;;;4.10;99.90;;;;;;5028770;28;20084;-67
2023/02/11 08:50:31;;;;;;;55.08;21.30;;;4.10;99.90;;;;;;5047207;28;20440;-67
2023/02/11 08:52:57;;;;;;;45.30;20.35;;;4.20;99.90;;;;;;5047386;28;20565;-67
2023/02/11 08:55:22;;;;;;;41.40;17.75;;;4.20;99.90;;;;;;5048558;28;20514;-66
2023/02/11 08:57:48;;;;;;;39.53;18.75;;;4.20;99.90;;;;;;5044794;28;20128;-67
2023/02/11 09:00:15;;;;;;;42.20;16.90;;;4.20;99.90;;;;;;5046991;28;20400;-67
2023/02/11 09:02:40;;;;;;;42.03;20.30;;;4.20;99.90;;;;;;5035352;28;20508;-68
2023/02/11 09:05:06;;;;;;;55.92;22.75;;;4.20;99.90;;;;;;5046596;28;20047;-66
2023/02/11 09:07:32;;;;;;;49.92;20.38;;;4.20;99.90;;;;;;5047525;28;20408;-66
2023/02/11 09:09:58;;;;;;;50.88;21.55;;;4.20;99.90;;;;;;5047767;28;20115;-66
2023/02/11 09:12:23;;;;;;;51.58;19.35;;;4.30;99.90;;;;;;5048743;28;20120;-67
2023/02/11 09:14:49;;;;;;;45.78;18.73;;;4.30;99.90;;;;;;5046276;28;20055;-66
2023/02/11 09:17:14;;;;;;;40.63;18.35;;;4.30;99.90;;;;;;5045638;28;20052;-66
2023/02/11 09:19:40;;;;;;;42.30;18.23;;;4.30;99.90;;;;;;5045442;28;20029;-67
2023/02/11 09:22:05;;;;;;;42.72;18.10;;;4.40;99.90;;;;;;5046361;28;20516;-68
2023/02/11 09:24:31;;;;;;;54.78;23.20;;;4.40;99.90;;;;;;5046386;28;20055;-66
2023/02/11 09:26:57;;;;;;;42.55;21.00;;;4.40;99.90;;;;;;5044568;28;20511;-68
2023/02/11 09:29:22;;;;;;;65.78;29.02;;;4.40;99.90;;;;;;5046172;28;20032;-66
2023/02/11 09:31:49;;;;;;;55.72;24.15;;;4.50;99.90;;;;;;5047157;28;20047;-66
2023/02/11 09:34:14;;;;;;;63.67;26.67;;;4.50;99.90;;;;;;5030908;28;20032;-67
2023/02/11 09:36:41;;;;;;;44.97;21.88;;;4.50;99.90;;;;;;5048824;28;20425;-66
2023/02/11 09:39:18;;;;;;;87.55;37.40;;;4.60;99.90;;;;;;5030271;28;20029;-68
2023/02/11 09:41:58;;;;;;;57.30;25.73;;;4.60;99.90;;;;;;5048024;28;20029;-66
2023/02/11 09:44:30;;;;;;;75.47;35.33;;;4.60;99.90;;;;;;5047336;28;20033;-66
2023/02/11 09:47:19;;;;;;;67.63;31.85;;;4.70;99.90;;;;;;5049291;28;20028;-67
2023/02/11 09:49:52;;;;;;;51.13;25.70;;;4.70;99.90;;;;;;5051131;28;20058;-66
2023/02/11 09:52:47;;;;;;;47.63;21.38;;;4.70;99.90;;;;;;5048408;28;20502;-68
2023/02/11 09:55:36;;;;;;;66.60;29.23;;;4.80;99.90;;;;;;5039076;28;20090;-67
2023/02/11 09:58:14;;;;;;;56.67;27.30;;;4.80;99.90;;;;;;5045373;28;20017;-66
2023/02/11 10:00:50;;;;;;;43.35;21.33;;;4.80;99.90;;;;;;5048960;28;20036;-66
2023/02/11 10:03:37;;;;;;;56.50;26.30;;;4.90;99.90;;;;;;5042128;28;20742;-67
2023/02/11 10:06:33;;;;;;;44.65;20.70;;;4.90;99.90;;;;;;5046390;28;20049;-66
2023/02/11 10:08:58;;;;;;;39.55;18.63;;;5.00;99.90;;;;;;5071003;22;20123;-65
2023/02/11 10:11:39;;;;;;;43.85;20.42;;;5.00;99.90;;;;;;5037898;28;20098;-64
2023/02/11 10:14:07;;;;;;;41.05;20.08;;;5.00;99.90;;;;;;5014464;28;20124;-64
2023/02/11 10:16:55;;;;;;;56.17;23.48;;;5.00;99.90;;;;;;5047062;28;20021;-65
2023/02/11 10:19:56;;;;;;;48.17;21.20;;;5.00;99.90;;;;;;5043200;28;20025;-64
2023/02/11 10:22:42;;;;;;;40.72;20.17;;;5.00;99.90;;;;;;5026693;28;20099;-65
2023/02/11 10:25:17;;;;;;;62.78;31.10;;;5.00;99.90;;;;;;5026364;28;20037;-63
2023/02/11 10:27:42;;;;;;;49.90;22.45;;;5.10;99.90;;;;;;5029589;28;20089;-64
2023/02/11 10:30:31;;;;;;;40.15;18.83;;;5.10;99.90;;;;;;5029281;28;20064;-64
2023/02/11 10:33:20;;;;;;;39.17;17.02;;;5.10;99.90;;;;;;5020814;28;20029;-65
2023/02/11 10:35:46;;;;;;;37.63;17.95;;;5.20;99.90;;;;;;5027672;28;20029;-66
2023/02/11 10:38:12;;;;;;;39.90;18.67;;;5.20;99.90;;;;;;5030251;28;20084;-65
2023/02/11 10:40:37;;;;;;;41.75;18.90;;;5.20;99.90;;;;;;5029443;28;20075;-64
2023/02/11 10:43:06;;;;;;;42.03;19.08;;;5.30;99.90;;;;;;5030450;28;20557;-66
2023/02/11 10:45:37;;;;;;;45.13;18.50;;;5.30;99.90;;;;;;5029787;28;20029;-64
2023/02/11 10:48:05;;;;;;;43.67;19.17;;;5.30;99.90;;;;;;5012009;28;20033;-65
2023/02/11 10:50:33;;;;;;;38.22;21.02;;;5.30;99.90;;;;;;5022093;28;20464;-63
2023/02/11 10:53:19;;;;;;;54.33;19.67;;;5.40;99.90;;;;;;5023102;28;20021;-65
2023/02/11 10:55:53;;;;;;;35.05;18.05;;;5.40;99.90;;;;;;5022134;28;20030;-64
2023/02/11 10:58:34;;;;;;;38.50;17.48;;;5.40;99.90;;;;;;5030401;28;20026;-66
2023/02/11 11:01:00;;;;;;;43.05;19.92;;;5.50;99.90;;;;;;5027736;28;20724;-66
2023/02/11 11:03:30;;;;;;;37.25;17.52;;;5.50;99.90;;;;;;5027396;28;20021;-65
2023/02/11 11:06:06;;;;;;;35.10;15.75;;;5.50;99.90;;;;;;5022459;28;20076;-65
2023/02/11 11:08:49;;;;;;;33.47;16.85;;;5.60;99.90;;;;;;5029711;28;20444;-66
2023/02/11 11:11:21;;;;;;;36.28;17.63;;;5.60;99.90;;;;;;5028677;28;20037;-65
2023/02/11 11:13:52;;;;;;;36.83;17.58;;;5.60;99.90;;;;;;5032210;28;20033;-65
2023/02/11 11:16:31;;;;;;;33.80;16.02;;;5.50;99.90;;;;;;5020456;28;20136;-66
2023/02/11 11:19:05;;;;;;;36.38;16.63;;;5.50;99.90;;;;;;5028586;28;20068;-65
2023/02/11 11:21:38;;;;;;;41.30;18.25;;;5.50;99.90;;;;;;5027484;28;20029;-65
2023/02/11 11:24:12;;;;;;;35.65;17.02;;;5.60;99.90;;;;;;5023011;28;20036;-65
2023/02/11 11:26:44;;;;;;;37.88;16.38;;;5.50;99.90;;;;;;5023012;28;20049;-65
2023/02/11 11:29:27;;;;;;;33.58;17.35;;;5.60;99.90;;;;;;5019154;28;20026;-65
2023/02/11 11:31:56;;;;;;;41.23;16.43;;;5.50;99.90;;;;;;5020437;28;20033;-65
2023/02/11 11:34:37;;;;;;;34.90;15.88;;;5.50;99.90;;;;;;5023132;28;20785;-64
2023/02/11 11:37:18;;;;;;;31.30;15.80;;;5.60;99.90;;;;;;5023237;28;20021;-64
2023/02/11 11:39:55;;;;;;;37.20;17.70;;;5.50;99.90;;;;;;5028593;28;20515;-64
2023/02/11 11:42:23;;;;;;;37.00;16.15;;;5.60;99.90;;;;;;5003685;28;20048;-64
2023/02/11 11:45:00;;;;;;;36.28;18.30;;;5.60;99.90;;;;;;5019524;28;20028;-64
2023/02/11 11:47:40;;;;;;;39.50;16.95;;;5.60;99.90;;;;;;5021348;28;20100;-65
2023/02/11 11:50:27;;;;;;;41.67;17.20;;;5.70;99.90;;;;;;5003497;28;20026;-63
2023/02/11 11:53:00;;;;;;;42.58;17.85;;;5.70;99.90;;;;;;5022949;28;20029;-65
2023/02/11 11:55:36;;;;;;;34.10;15.93;;;5.70;99.90;;;;;;5011612;28;20017;-63
2023/02/11 11:58:03;;;;;;;40.30;17.00;;;5.70;99.90;;;;;;5027186;28;20067;-64
2023/02/11 12:00:38;;;;;;;31.88;15.85;;;5.80;99.90;;;;;;5028848;28;21879;-64
2023/02/11 12:03:20;;;;;;;39.58;17.33;;;5.80;99.90;;;;;;5019977;28;20029;-65
2023/02/11 12:06:07;;;;;;;36.30;16.95;;;5.80;99.90;;;;;;5021345;28;20040;-65
2023/02/11 12:09:00;;;;;;;40.65;19.15;;;5.80;99.90;;;;;;5025424;28;20030;-65
2023/02/11 12:11:29;;;;;;;33.42;17.38;;;5.80;99.90;;;;;;5008243;28;20032;-65
2023/02/11 12:14:07;;;;;;;35.10;17.40;;;5.80;99.90;;;;;;5030211;28;20021;-64
2023/02/11 12:16:44;;;;;;;43.78;17.52;;;5.90;99.90;;;;;;5021407;28;20021;-65
2023/02/11 12:19:48;;;;;;;40.67;17.98;;;5.90;99.90;;;;;;5019348;28;20372;-65
2023/02/11 12:22:36;;;;;;;38.00;17.70;;;5.90;99.90;;;;;;4985362;28;20484;-65
2023/02/11 12:25:17;;;;;;;42.22;18.92;;;5.90;99.90;;;;;;5012259;28;20041;-65
2023/02/11 12:27:52;;;;;;;41.85;18.30;;;5.80;99.90;;;;;;5025129;28;20029;-65
2023/02/11 12:30:26;;;;;;;39.33;18.52;;;5.90;99.90;;;;;;5019246;28;20098;-63
2023/02/11 12:33:23;;;;;;;40.58;19.35;;;5.90;99.90;;;;;;5018586;28;20022;-65
2023/02/11 12:35:54;;;;;;;34.88;16.83;;;5.90;99.90;;;;;;5021946;28;20100;-66
2023/02/11 12:38:39;;;;;;;88.55;30.50;;;6.00;99.90;;;;;;5021783;28;20022;-65
2023/02/11 12:43:14;;;;;;;;;;;6.00;99.90;;;;;;5025529;28;20041;-66
2023/02/11 12:44:08;;;;;;;40.13;19.25;;;5.90;99.90;;;;;;5021544;28;21702;-65
2023/02/11 12:47:21;;;;;;;40.60;17.25;;;5.90;99.90;;;;;;5027891;28;20392;-66
2023/02/11 12:49:59;;;;;;;32.90;16.65;;;6.00;99.90;;;;;;4982665;28;20048;-65
2023/02/11 12:52:43;;;;;;;39.40;17.80;;;6.00;99.90;;;;;;5025505;28;20032;-64
2023/02/11 12:55:20;;;;;;;43.05;18.35;;;6.00;99.90;;;;;;5024556;28;20021;-65
2023/02/11 12:57:47;;;;;;;36.72;17.55;;;6.00;99.90;;;;;;5025212;28;20029;-65
2023/02/11 13:00:21;;;;;;;35.90;16.83;;;6.00;99.90;;;;;;5031450;28;20033;-65
2023/02/11 13:03:03;;;;;;;39.20;16.73;;;5.90;99.90;;;;;;5011274;28;20037;-65